createdAt,value
2018-03-06T00:00:20.287Z,0.31
2018-03-06T00:01:18.363Z,0.29
2018-03-06T00:02:18.335Z,0.31
2018-03-06T00:03:18.331Z,0.26
2018-03-06T00:04:18.840Z,0.29
2018-03-06T00:05:18.320Z,0.26
2018-03-06T00:06:18.348Z,0.23
2018-03-06T00:07:18.005Z,0.31
2018-03-06T00:08:18.979Z,0.28
2018-03-06T00:09:18.232Z,0.24
2018-03-06T00:10:18.233Z,0.23
2018-03-06T00:11:19.804Z,0.26
2018-03-06T00:12:18.182Z,0.23
2018-03-06T00:13:18.213Z,0.26
2018-03-06T00:14:18.164Z,0.21
2018-03-06T00:15:19.482Z,0.21
2018-03-06T00:16:18.118Z,0.24
2018-03-06T00:17:18.122Z,0.2
2018-03-06T00:18:18.086Z,0.23
2018-03-06T00:19:19.129Z,0.21
2018-03-06T00:20:17.533Z,0.15
2018-03-06T00:21:18.120Z,0.17
2018-03-06T00:22:18.125Z,0.26
2018-03-06T00:23:17.765Z,0.24
2018-03-06T00:24:17.759Z,0.2
2018-03-06T00:25:18.006Z,0.18
2018-03-06T00:26:19.285Z,0.26
2018-03-06T00:27:17.951Z,0.31
2018-03-06T00:28:17.402Z,0.17
2018-03-06T00:29:17.951Z,0.26
2018-03-06T00:30:17.375Z,0.28
2018-03-06T00:31:17.904Z,0.28
2018-03-06T00:32:17.902Z,0.29
2018-03-06T00:33:17.859Z,0.2
2018-03-06T00:34:18.567Z,0.24
2018-03-06T00:35:17.846Z,0.23
2018-03-06T00:36:17.827Z,0.14
2018-03-06T00:37:17.820Z,0.18
2018-03-06T00:38:18.294Z,0.17
2018-03-06T00:39:17.764Z,0.14
2018-03-06T00:40:17.751Z,0.17
2018-03-06T00:41:19.298Z,0.2
2018-03-06T00:42:17.757Z,0.15
2018-03-06T00:43:17.174Z,0.1
2018-03-06T00:44:18.350Z,0.17
2018-03-06T00:45:17.412Z,0.08
2018-03-06T00:46:17.413Z,0.1
2018-03-06T00:47:19.633Z,0.23
2018-03-06T00:48:17.357Z,0.07
2018-03-06T00:49:17.623Z,0.1
2018-03-06T00:50:17.328Z,0.17
2018-03-06T00:51:19.002Z,0.11
2018-03-06T00:52:17.579Z,0.1
2018-03-06T00:53:17.283Z,0.11
2018-03-06T00:54:19.418Z,0.02
2018-03-06T00:55:17.536Z,0.11
2018-03-06T00:56:17.247Z,0.11
2018-03-06T00:57:16.949Z,0
2018-03-06T00:58:17.466Z,-0.04
2018-03-06T00:59:17.191Z,-0.04
2018-03-06T01:00:17.475Z,-0.01
2018-03-06T01:01:18.651Z,-0.03
2018-03-06T01:02:17.438Z,-0.03
2018-03-06T01:03:17.390Z,-0.01
2018-03-06T01:04:17.578Z,-0.01
2018-03-06T01:05:18.121Z,-0.11
2018-03-06T01:06:17.366Z,0
2018-03-06T01:07:17.332Z,0
2018-03-06T01:08:19.064Z,-0.03
2018-03-06T01:09:17.309Z,0.02
2018-03-06T01:10:17.290Z,0.02
2018-03-06T01:11:17.279Z,0
2018-03-06T01:12:18.739Z,0.07
2018-03-06T01:13:16.979Z,0.1
2018-03-06T01:14:17.266Z,0.08
2018-03-06T01:15:17.740Z,0.02
2018-03-06T01:16:17.194Z,0.04
2018-03-06T01:17:17.200Z,0.1
2018-03-06T01:18:17.167Z,-0.04
2018-03-06T01:19:18.986Z,-0.03
2018-03-06T01:20:16.877Z,-0.04
2018-03-06T01:21:17.134Z,0.04
2018-03-06T01:22:17.120Z,-0.01
2018-03-06T01:23:18.832Z,-0.15
2018-03-06T01:24:16.798Z,-0.07
2018-03-06T01:25:17.050Z,-0.08
2018-03-06T01:26:18.661Z,-0.03
2018-03-06T01:27:17.054Z,-0.11
2018-03-06T01:28:17.010Z,-0.04
2018-03-06T01:29:16.719Z,0
2018-03-06T01:30:18.642Z,-0.16
2018-03-06T01:31:16.981Z,-0.18
2018-03-06T01:32:16.682Z,-0.03
2018-03-06T01:33:18.570Z,-0.05
2018-03-06T01:34:16.923Z,-0.05
2018-03-06T01:35:16.638Z,-0.03
2018-03-06T01:36:18.655Z,-0.07
2018-03-06T01:37:16.873Z,0.02
2018-03-06T01:38:16.867Z,-0.1
2018-03-06T01:39:17.977Z,-0.1
2018-03-06T01:40:16.564Z,-0.19
2018-03-06T01:41:16.820Z,-0.1
2018-03-06T01:42:16.807Z,-0.14
2018-03-06T01:43:18.799Z,-0.08
2018-03-06T01:44:16.790Z,-0.07
2018-03-06T01:45:16.468Z,-0.11
2018-03-06T01:46:18.244Z,-0.1
2018-03-06T01:47:16.443Z,-0.03
2018-03-06T01:48:16.705Z,-0.04
2018-03-06T01:49:18.136Z,-0.08
2018-03-06T01:50:16.655Z,-0.07
2018-03-06T01:51:16.641Z,0
2018-03-06T01:52:16.648Z,0
2018-03-06T01:53:17.298Z,-0.03
2018-03-06T01:54:16.344Z,-0.05
2018-03-06T01:55:16.338Z,-0.04
2018-03-06T01:56:16.948Z,-0.07
2018-03-06T01:57:16.565Z,-0.18
2018-03-06T01:58:16.541Z,-0.1
2018-03-06T01:59:17.346Z,-0.03
2018-03-06T02:00:16.256Z,-0.11
2018-03-06T02:01:16.499Z,-0.19
2018-03-06T02:02:16.466Z,-0.1
2018-03-06T02:03:17.090Z,-0.04
2018-03-06T02:04:16.457Z,-0.03
2018-03-06T02:05:16.446Z,-0.07
2018-03-06T02:06:17.078Z,-0.18
2018-03-06T02:07:16.409Z,-0.01
2018-03-06T02:08:16.376Z,0
2018-03-06T02:09:16.358Z,-0.07
2018-03-06T02:10:17.541Z,-0.03
2018-03-06T02:11:16.375Z,-0.03
2018-03-06T02:12:16.321Z,-0.08
2018-03-06T02:13:16.037Z,-0.03
2018-03-06T02:14:17.247Z,-0.05
2018-03-06T02:15:16.019Z,-0.1
2018-03-06T02:16:15.975Z,-0.14
2018-03-06T02:17:17.192Z,-0.08
2018-03-06T02:18:16.238Z,-0.08
2018-03-06T02:19:16.238Z,0.02
2018-03-06T02:20:16.204Z,-0.03
2018-03-06T02:21:17.666Z,-0.11
2018-03-06T02:22:16.200Z,-0.1
2018-03-06T02:23:15.599Z,-0.01
2018-03-06T02:24:16.137Z,0.02
2018-03-06T02:25:17.593Z,-0.07
2018-03-06T02:26:16.100Z,-0.04
2018-03-06T02:27:16.086Z,-0.01
2018-03-06T02:28:16.839Z,-0.07
2018-03-06T02:29:15.782Z,-0.03
2018-03-06T02:30:16.044Z,0.04
2018-03-06T02:31:15.749Z,0.02
2018-03-06T02:32:17.521Z,-0.04
2018-03-06T02:33:15.996Z,0.02
2018-03-06T02:34:15.964Z,-0.01
2018-03-06T02:35:15.953Z,-0.05
2018-03-06T02:36:17.542Z,-0.04
2018-03-06T02:37:15.951Z,-0.07
2018-03-06T02:38:15.905Z,-0.11
2018-03-06T02:39:16.609Z,-0.1
2018-03-06T02:40:15.893Z,-0.1
2018-03-06T02:41:15.869Z,-0.07
2018-03-06T02:42:15.568Z,-0.16
2018-03-06T02:43:17.636Z,-0.08
2018-03-06T02:44:15.817Z,-0.1
2018-03-06T02:45:15.808Z,-0.08
2018-03-06T02:46:17.552Z,-0.1
2018-03-06T02:47:15.911Z,-0.1
2018-03-06T02:48:15.754Z,-0.16
2018-03-06T02:49:15.465Z,-0.15
2018-03-06T02:50:17.431Z,-0.16
2018-03-06T02:51:15.697Z,-0.07
2018-03-06T02:52:15.731Z,-0.16
2018-03-06T02:53:15.395Z,-0.14
2018-03-06T02:54:17.022Z,-0.11
2018-03-06T02:55:15.636Z,-0.08
2018-03-06T02:56:15.629Z,-0.11
2018-03-06T02:57:17.145Z,-0.04
2018-03-06T02:58:15.580Z,-0.04
2018-03-06T02:59:15.590Z,-0.03
2018-03-06T03:00:15.574Z,-0.03
2018-03-06T03:01:17.214Z,0
2018-03-06T03:02:15.538Z,-0.07
2018-03-06T03:03:15.241Z,0.04
2018-03-06T03:04:15.500Z,0.02
2018-03-06T03:05:16.293Z,-0.14
2018-03-06T03:06:15.472Z,-0.1
2018-03-06T03:07:15.468Z,-0.04
2018-03-06T03:08:17.044Z,-0.05
2018-03-06T03:09:15.443Z,-0.04
2018-03-06T03:10:15.400Z,-0.07
2018-03-06T03:11:15.400Z,-0.11
2018-03-06T03:12:16.632Z,-0.11
2018-03-06T03:13:15.383Z,-0.11
2018-03-06T03:14:15.078Z,-0.1
2018-03-06T03:15:15.341Z,-0.15
2018-03-06T03:16:16.040Z,-0.1
2018-03-06T03:17:15.317Z,-0.11
2018-03-06T03:18:15.296Z,-0.14
2018-03-06T03:19:16.073Z,-0.18
2018-03-06T03:20:15.246Z,-0.07
2018-03-06T03:21:15.232Z,-0.15
2018-03-06T03:22:15.213Z,-0.15
2018-03-06T03:23:16.672Z,-0.11
2018-03-06T03:24:14.911Z,-0.07
2018-03-06T03:25:14.916Z,-0.11
2018-03-06T03:26:16.945Z,-0.23
2018-03-06T03:27:14.880Z,-0.14
2018-03-06T03:28:14.865Z,-0.22
2018-03-06T03:29:15.823Z,-0.14
2018-03-06T03:30:15.093Z,-0.18
2018-03-06T03:31:14.791Z,-0.23
2018-03-06T03:32:15.678Z,-0.28
2018-03-06T03:33:14.757Z,-0.22
2018-03-06T03:34:14.746Z,-0.31
2018-03-06T03:35:15.056Z,-0.23
2018-03-06T03:36:15.971Z,-0.29
2018-03-06T03:37:14.971Z,-0.33
2018-03-06T03:38:14.978Z,-0.34
2018-03-06T03:39:15.964Z,-0.29
2018-03-06T03:40:14.916Z,-0.33
2018-03-06T03:41:14.910Z,-0.36
2018-03-06T03:42:15.085Z,-0.39
2018-03-06T03:43:14.868Z,-0.42
2018-03-06T03:44:14.868Z,-0.39
2018-03-06T03:45:16.483Z,-0.4
2018-03-06T03:46:14.830Z,-0.46
2018-03-06T03:47:14.828Z,-0.54
2018-03-06T03:48:15.433Z,-0.46
2018-03-06T03:49:14.789Z,-0.57
2018-03-06T03:50:14.503Z,-0.55
2018-03-06T03:51:15.994Z,-0.58
2018-03-06T03:52:14.738Z,-0.54
2018-03-06T03:53:14.741Z,-0.54
2018-03-06T03:54:14.691Z,-0.57
2018-03-06T03:55:16.196Z,-0.49
2018-03-06T03:56:14.396Z,-0.54
2018-03-06T03:57:14.644Z,-0.57
2018-03-06T03:58:16.241Z,-0.62
2018-03-06T03:59:14.620Z,-0.49
2018-03-06T04:00:14.604Z,-0.54
2018-03-06T04:01:14.592Z,-0.54
2018-03-06T04:02:14.986Z,-0.58
2018-03-06T04:03:14.558Z,-0.54
2018-03-06T04:04:14.577Z,-0.55
2018-03-06T04:05:14.533Z,-0.57
2018-03-06T04:06:14.528Z,-0.61
2018-03-06T04:07:16.334Z,-0.57
2018-03-06T04:08:14.483Z,-0.57
2018-03-06T04:09:14.469Z,-0.62
2018-03-06T04:10:14.834Z,-0.57
2018-03-06T04:11:14.436Z,-0.61
2018-03-06T04:12:14.432Z,-0.55
2018-03-06T04:13:14.122Z,-0.52
2018-03-06T04:14:15.566Z,-0.7
2018-03-06T04:15:14.384Z,-0.62
2018-03-06T04:16:14.368Z,-0.62
2018-03-06T04:17:14.898Z,-0.65
2018-03-06T04:18:14.336Z,-0.62
2018-03-06T04:19:14.343Z,-0.62
2018-03-06T04:20:14.796Z,-0.65
2018-03-06T04:21:14.274Z,-0.73
2018-03-06T04:22:14.249Z,-0.67
2018-03-06T04:23:14.239Z,-0.64
2018-03-06T04:24:14.738Z,-0.72
2018-03-06T04:25:14.260Z,-0.7
2018-03-06T04:26:13.928Z,-0.65
2018-03-06T04:27:15.599Z,-0.64
2018-03-06T04:28:14.168Z,-0.62
2018-03-06T04:29:14.152Z,-0.61
2018-03-06T04:30:14.138Z,-0.67
2018-03-06T04:31:15.366Z,-0.67
2018-03-06T04:32:14.101Z,-0.69
2018-03-06T04:33:13.795Z,-0.69
2018-03-06T04:34:15.257Z,-0.72
2018-03-06T04:35:13.778Z,-0.7
2018-03-06T04:36:13.748Z,-0.67
2018-03-06T04:37:14.636Z,-0.61
2018-03-06T04:38:13.450Z,-0.72
2018-03-06T04:39:13.973Z,-0.69
2018-03-06T04:40:13.950Z,-0.69
2018-03-06T04:41:14.794Z,-0.69
2018-03-06T04:42:13.931Z,-0.67
2018-03-06T04:43:13.933Z,-0.78
2018-03-06T04:44:15.234Z,-0.75
2018-03-06T04:45:13.881Z,-0.72
2018-03-06T04:46:13.907Z,-0.7
2018-03-06T04:47:13.847Z,-0.82
2018-03-06T04:48:14.386Z,-0.83
2018-03-06T04:49:13.823Z,-0.73
2018-03-06T04:50:13.821Z,-0.75
2018-03-06T04:51:15.430Z,-0.72
2018-03-06T04:52:13.776Z,-0.78
2018-03-06T04:53:13.752Z,-0.79
2018-03-06T04:54:13.461Z,-0.85
2018-03-06T04:55:14.112Z,-0.83
2018-03-06T04:56:13.717Z,-0.78
2018-03-06T04:57:13.420Z,-0.78
2018-03-06T04:58:13.679Z,-0.76
2018-03-06T04:59:15.332Z,-0.82
2018-03-06T05:00:13.643Z,-0.78
2018-03-06T05:01:13.631Z,-0.75
2018-03-06T05:02:15.375Z,-0.76
2018-03-06T05:03:13.587Z,-0.79
2018-03-06T05:04:13.563Z,-0.82
2018-03-06T05:05:13.567Z,-0.7
2018-03-06T05:06:15.371Z,-0.65
2018-03-06T05:07:13.522Z,-0.7
2018-03-06T05:08:13.521Z,-0.78
2018-03-06T05:09:13.493Z,-0.64
2018-03-06T05:10:15.120Z,-0.72
2018-03-06T05:11:13.455Z,-0.62
2018-03-06T05:12:13.444Z,-0.62
2018-03-06T05:13:13.457Z,-0.67
2018-03-06T05:14:13.440Z,-0.69
2018-03-06T05:15:13.412Z,-0.64
2018-03-06T05:16:14.855Z,-0.64
2018-03-06T05:17:13.089Z,-0.57
2018-03-06T05:18:13.358Z,-0.61
2018-03-06T05:19:15.004Z,-0.62
2018-03-06T05:20:13.318Z,-0.64
2018-03-06T05:21:13.025Z,-0.62
2018-03-06T05:22:13.276Z,-0.58
2018-03-06T05:23:14.759Z,-0.67
2018-03-06T05:24:13.267Z,-0.58
2018-03-06T05:25:13.223Z,-0.64
2018-03-06T05:26:12.945Z,-0.65
2018-03-06T05:27:14.581Z,-0.61
2018-03-06T05:28:12.913Z,-0.62
2018-03-06T05:29:13.216Z,-0.64
2018-03-06T05:30:12.898Z,-0.62
2018-03-06T05:31:14.579Z,-0.62
2018-03-06T05:32:13.142Z,-0.61
2018-03-06T05:33:13.105Z,-0.61
2018-03-06T05:34:13.138Z,-0.65
2018-03-06T05:35:13.629Z,-0.67
2018-03-06T05:36:12.516Z,-0.6
2018-03-06T05:37:12.766Z,-0.55
2018-03-06T05:38:12.486Z,-0.54
2018-03-06T05:39:13.016Z,-0.55
2018-03-06T05:40:12.985Z,-0.61
2018-03-06T05:41:13.083Z,-0.65
2018-03-06T05:42:13.762Z,-0.67
2018-03-06T05:43:12.679Z,-0.7
2018-03-06T05:44:12.939Z,-0.65
2018-03-06T05:45:12.937Z,-0.58
2018-03-06T05:46:13.656Z,-0.51
2018-03-06T05:47:12.886Z,-0.49
2018-03-06T05:48:12.607Z,-0.47
2018-03-06T05:49:12.861Z,-0.51
2018-03-06T05:50:14.403Z,-0.51
2018-03-06T05:51:12.552Z,-0.46
2018-03-06T05:52:12.533Z,-0.4
2018-03-06T05:53:12.898Z,-0.44
2018-03-06T05:54:13.503Z,-0.46
2018-03-06T05:55:12.488Z,-0.51
2018-03-06T05:56:12.746Z,-0.43
2018-03-06T05:57:12.447Z,-0.44
2018-03-06T05:58:12.446Z,-0.44
2018-03-06T05:59:12.695Z,-0.34
2018-03-06T06:00:12.451Z,-0.33
2018-03-06T06:01:12.602Z,-0.42
2018-03-06T06:02:12.385Z,-0.36
2018-03-06T06:03:12.628Z,-0.29
2018-03-06T06:04:12.335Z,-0.26
2018-03-06T06:05:13.988Z,-0.16
2018-03-06T06:06:12.313Z,-0.15
2018-03-06T06:07:12.574Z,-0.11
2018-03-06T06:08:12.568Z,-0.08
2018-03-06T06:09:12.271Z,-0.01
2018-03-06T06:10:12.853Z,0.03
2018-03-06T06:11:12.230Z,0.03
2018-03-06T06:12:12.489Z,-0.04
2018-03-06T06:13:14.081Z,-0.05
2018-03-06T06:14:12.429Z,0.04
2018-03-06T06:15:12.421Z,0.13
2018-03-06T06:16:12.388Z,0.24
2018-03-06T06:17:12.118Z,0.28
2018-03-06T06:18:12.356Z,0.39
2018-03-06T06:19:12.360Z,0.39
2018-03-06T06:20:12.359Z,0.51
2018-03-06T06:21:12.315Z,0.6
2018-03-06T06:22:12.293Z,0.57
2018-03-06T06:23:12.285Z,0.73
2018-03-06T06:24:12.263Z,0.86
2018-03-06T06:25:12.267Z,0.9
2018-03-06T06:26:12.231Z,0.84
2018-03-06T06:27:12.257Z,0.91
2018-03-06T06:28:12.204Z,0.97
2018-03-06T06:29:12.189Z,1.04
2018-03-06T06:30:12.205Z,1.15
2018-03-06T06:31:12.173Z,1.11
2018-03-06T06:32:12.144Z,1.27
2018-03-06T06:33:12.133Z,1.29
2018-03-06T06:34:11.888Z,1.33
2018-03-06T06:35:12.100Z,1.41
2018-03-06T06:36:12.123Z,1.47
2018-03-06T06:37:12.074Z,1.58
2018-03-06T06:38:12.059Z,1.54
2018-03-06T06:39:11.793Z,1.6
2018-03-06T06:40:11.774Z,1.68
2018-03-06T06:41:11.758Z,1.81
2018-03-06T06:42:12.043Z,1.8
2018-03-06T06:43:11.728Z,1.86
2018-03-06T06:44:11.971Z,1.99
2018-03-06T06:45:11.705Z,2.02
2018-03-06T06:46:11.950Z,2.1
2018-03-06T06:47:11.946Z,2.16
2018-03-06T06:48:11.661Z,2.21
2018-03-06T06:49:11.903Z,2.41
2018-03-06T06:50:11.903Z,2.46
2018-03-06T06:51:11.872Z,2.56
2018-03-06T06:52:11.883Z,2.56
2018-03-06T06:53:11.874Z,2.57
2018-03-06T06:54:11.833Z,2.71
2018-03-06T06:55:11.567Z,2.74
2018-03-06T06:56:11.805Z,2.85
2018-03-06T06:57:11.539Z,2.85
2018-03-06T06:58:11.788Z,2.96
2018-03-06T06:59:11.764Z,3.08
2018-03-06T07:00:11.497Z,2.95
2018-03-06T07:01:11.491Z,2.99
2018-03-06T07:02:11.732Z,2.96
2018-03-06T07:03:12.123Z,3.06
2018-03-06T07:04:11.704Z,3.13
2018-03-06T07:05:11.691Z,3.21
2018-03-06T07:06:11.678Z,3.18
2018-03-06T07:07:11.677Z,3.17
2018-03-06T07:08:11.652Z,3.2
2018-03-06T07:09:11.657Z,3.26
2018-03-06T07:10:11.641Z,3.24
2018-03-06T07:11:11.884Z,3.4
2018-03-06T07:12:11.621Z,3.43
2018-03-06T07:13:11.682Z,3.51
2018-03-06T07:14:11.336Z,3.54
2018-03-06T07:15:11.576Z,3.54
2018-03-06T07:16:11.562Z,3.61
2018-03-06T07:17:11.545Z,3.69
2018-03-06T07:18:11.277Z,3.72
2018-03-06T07:19:11.009Z,3.76
2018-03-06T07:20:11.256Z,3.87
2018-03-06T07:21:11.530Z,3.96
2018-03-06T07:22:11.487Z,4.05
2018-03-06T07:23:11.478Z,4.09
2018-03-06T07:24:11.223Z,4.12
2018-03-06T07:25:11.465Z,4.15
2018-03-06T07:26:11.440Z,4.11
2018-03-06T07:27:11.458Z,4.15
2018-03-06T07:28:11.424Z,4.26
2018-03-06T07:29:11.412Z,4.37
2018-03-06T07:30:11.395Z,4.44
2018-03-06T07:31:11.385Z,4.54
2018-03-06T07:32:11.380Z,4.52
2018-03-06T07:33:11.364Z,4.62
2018-03-06T07:34:11.115Z,4.72
2018-03-06T07:35:11.363Z,4.8
2018-03-06T07:36:11.073Z,4.7
2018-03-06T07:37:11.329Z,4.78
2018-03-06T07:38:11.373Z,4.73
2018-03-06T07:39:11.320Z,4.78
2018-03-06T07:40:11.287Z,4.65
2018-03-06T07:41:11.278Z,4.54
2018-03-06T07:42:11.019Z,4.5
2018-03-06T07:43:11.005Z,4.48
2018-03-06T07:44:10.991Z,4.47
2018-03-06T07:45:11.236Z,4.34
2018-03-06T07:46:10.717Z,4.44
2018-03-06T07:47:11.223Z,4.41
2018-03-06T07:48:10.949Z,4.3
2018-03-06T07:49:11.196Z,4.33
2018-03-06T07:50:11.185Z,4.24
2018-03-06T07:51:10.947Z,4.27
2018-03-06T07:52:11.159Z,4.26
2018-03-06T07:53:10.910Z,4.29
2018-03-06T07:54:11.216Z,4.26
2018-03-06T07:55:10.877Z,4.2
2018-03-06T07:56:11.121Z,4.14
2018-03-06T07:57:10.872Z,4.12
2018-03-06T07:58:10.857Z,4.22
2018-03-06T07:59:10.834Z,4.26
2018-03-06T08:00:10.566Z,4.26
2018-03-06T08:01:11.064Z,4.41
2018-03-06T08:02:11.056Z,4.4
2018-03-06T08:03:11.040Z,4.51
2018-03-06T08:04:10.779Z,4.51
2018-03-06T08:05:11.030Z,4.5
2018-03-06T08:06:11.014Z,4.48
2018-03-06T08:07:11.001Z,4.58
2018-03-06T08:08:10.742Z,4.67
2018-03-06T08:09:11.289Z,4.7
2018-03-06T08:10:10.971Z,4.69
2018-03-06T08:11:10.957Z,4.8
2018-03-06T08:12:10.946Z,4.89
2018-03-06T08:13:10.942Z,4.96
2018-03-06T08:14:10.928Z,4.97
2018-03-06T08:15:10.916Z,4.96
2018-03-06T08:16:10.907Z,4.91
2018-03-06T08:17:10.940Z,4.96
2018-03-06T08:18:10.890Z,4.99
2018-03-06T08:19:10.874Z,5.04
2018-03-06T08:20:10.609Z,5.07
2018-03-06T08:21:10.597Z,5.18
2018-03-06T08:22:10.584Z,5.07
2018-03-06T08:23:10.886Z,5.15
2018-03-06T08:24:10.819Z,5.06
2018-03-06T08:25:10.817Z,4.97
2018-03-06T08:26:10.797Z,4.92
2018-03-06T08:27:10.788Z,4.82
2018-03-06T08:28:10.527Z,4.7
2018-03-06T08:29:10.766Z,4.67
2018-03-06T08:30:10.249Z,4.72
2018-03-06T08:31:10.242Z,4.69
2018-03-06T08:32:10.479Z,4.77
2018-03-06T08:33:10.689Z,4.91
2018-03-06T08:34:10.223Z,4.92
2018-03-06T08:35:10.192Z,4.97
2018-03-06T08:36:10.184Z,4.99
2018-03-06T08:37:10.430Z,5
2018-03-06T08:38:10.673Z,5.13
2018-03-06T08:39:10.405Z,5.24
2018-03-06T08:40:10.648Z,5.33
2018-03-06T08:41:10.390Z,5.39
2018-03-06T08:42:10.375Z,5.45
2018-03-06T08:43:10.108Z,5.54
2018-03-06T08:44:10.614Z,5.63
2018-03-06T08:45:10.350Z,5.74
2018-03-06T08:46:10.595Z,5.85
2018-03-06T08:47:10.578Z,6.03
2018-03-06T08:48:10.610Z,6.11
2018-03-06T08:49:10.306Z,6.14
2018-03-06T08:50:10.292Z,6.19
2018-03-06T08:51:10.538Z,6.31
2018-03-06T08:52:10.549Z,6.34
2018-03-06T08:53:10.519Z,6.36
2018-03-06T08:54:10.252Z,6.21
2018-03-06T08:55:10.242Z,6.21
2018-03-06T08:56:10.492Z,6.19
2018-03-06T08:57:09.967Z,6.25
2018-03-06T08:58:10.468Z,6.28
2018-03-06T08:59:10.462Z,6.3
2018-03-06T09:00:10.473Z,6.21
2018-03-06T09:01:10.437Z,6.3
2018-03-06T09:02:10.433Z,6.34
2018-03-06T09:03:10.448Z,6.37
2018-03-06T09:04:10.422Z,6.38
2018-03-06T09:05:10.406Z,6.48
2018-03-06T09:06:10.433Z,6.7
2018-03-06T09:07:10.395Z,6.73
2018-03-06T09:08:10.381Z,6.79
2018-03-06T09:09:10.363Z,6.88
2018-03-06T09:10:10.096Z,7.02
2018-03-06T09:11:10.343Z,6.92
2018-03-06T09:12:10.392Z,7.02
2018-03-06T09:13:10.320Z,7.1
2018-03-06T09:14:10.333Z,7.2
2018-03-06T09:15:10.064Z,7.2
2018-03-06T09:16:10.039Z,7.34
2018-03-06T09:17:10.035Z,7.17
2018-03-06T09:18:10.280Z,7.32
2018-03-06T09:19:10.265Z,7.17
2018-03-06T09:20:10.268Z,7.17
2018-03-06T09:21:09.999Z,7.24
2018-03-06T09:22:10.251Z,7.28
2018-03-06T09:23:10.237Z,7.45
2018-03-06T09:24:10.225Z,7.39
2018-03-06T09:25:09.960Z,7.4
2018-03-06T09:26:10.201Z,7.28
2018-03-06T09:27:10.200Z,7.3
2018-03-06T09:28:10.186Z,7.24
2018-03-06T09:29:10.181Z,7.17
2018-03-06T09:30:10.187Z,7.25
2018-03-06T09:31:09.920Z,7.35
2018-03-06T09:32:09.890Z,7.63
2018-03-06T09:33:10.142Z,7.68
2018-03-06T09:34:10.157Z,7.69
2018-03-06T09:35:09.874Z,7.8
2018-03-06T09:36:10.121Z,7.82
2018-03-06T09:37:10.103Z,7.83
2018-03-06T09:38:09.851Z,7.92
2018-03-06T09:39:10.090Z,7.89
2018-03-06T09:40:09.849Z,8.07
2018-03-06T09:41:10.081Z,8.18
2018-03-06T09:42:09.804Z,8.15
2018-03-06T09:43:10.055Z,8.28
2018-03-06T09:44:09.796Z,8.36
2018-03-06T09:45:10.042Z,8.44
2018-03-06T09:46:09.781Z,8.5
2018-03-06T09:47:09.785Z,8.48
2018-03-06T09:48:10.013Z,8.37
2018-03-06T09:49:10.013Z,8.3
2018-03-06T09:50:10.018Z,8.29
2018-03-06T09:51:09.759Z,8.37
2018-03-06T09:52:09.764Z,8.38
2018-03-06T09:53:09.976Z,8.4
2018-03-06T09:54:09.452Z,8.4
2018-03-06T09:55:09.954Z,8.48
2018-03-06T09:56:09.690Z,8.37
2018-03-06T09:57:09.940Z,8.45
2018-03-06T09:58:09.925Z,8.34
2018-03-06T09:59:09.672Z,8.38
2018-03-06T10:00:09.657Z,8.36
2018-03-06T10:01:09.391Z,8.37
2018-03-06T10:02:09.901Z,8.33
2018-03-06T10:03:09.678Z,8.28
2018-03-06T10:04:09.879Z,8.16
2018-03-06T10:05:09.877Z,8.18
2018-03-06T10:06:09.880Z,8.18
2018-03-06T10:07:09.861Z,8.1
2018-03-06T10:08:09.616Z,8.04
2018-03-06T10:09:09.590Z,8.02
2018-03-06T10:10:09.839Z,7.95
2018-03-06T10:11:09.837Z,8
2018-03-06T10:12:09.814Z,8
2018-03-06T10:13:09.547Z,8
2018-03-06T10:14:09.795Z,8.05
2018-03-06T10:15:09.796Z,8.02
2018-03-06T10:16:09.788Z,8.12
2018-03-06T10:17:09.803Z,8.02
2018-03-06T10:18:09.505Z,8
2018-03-06T10:19:09.505Z,8
2018-03-06T10:20:09.745Z,8.11
2018-03-06T10:21:09.737Z,8.15
2018-03-06T10:22:09.472Z,8.2
2018-03-06T10:23:09.773Z,8.22
2018-03-06T10:24:09.732Z,8.18
2018-03-06T10:25:09.708Z,8.12
2018-03-06T10:26:09.714Z,8.22
2018-03-06T10:27:09.696Z,8.19
2018-03-06T10:28:09.836Z,8.23
2018-03-06T10:29:09.425Z,8.3
2018-03-06T10:30:09.668Z,8.34
2018-03-06T10:31:09.680Z,8.56
2018-03-06T10:32:09.661Z,8.56
2018-03-06T10:33:09.651Z,8.61
2018-03-06T10:34:09.702Z,8.71
2018-03-06T10:35:09.375Z,8.76
2018-03-06T10:36:09.367Z,8.8
2018-03-06T10:37:09.375Z,8.98
2018-03-06T10:38:09.642Z,9.05
2018-03-06T10:39:09.339Z,9.14
2018-03-06T10:40:09.366Z,9.17
2018-03-06T10:41:09.329Z,9.32
2018-03-06T10:42:09.351Z,9.35
2018-03-06T10:43:09.316Z,9.47
2018-03-06T10:44:09.056Z,9.51
2018-03-06T10:45:09.040Z,9.57
2018-03-06T10:46:09.034Z,9.5
2018-03-06T10:47:09.330Z,9.53
2018-03-06T10:48:09.532Z,9.36
2018-03-06T10:49:09.264Z,9.2
2018-03-06T10:50:09.282Z,9.21
2018-03-06T10:51:09.507Z,9.21
2018-03-06T10:52:09.511Z,9.14
2018-03-06T10:53:09.491Z,9.2
2018-03-06T10:54:09.493Z,9.1
2018-03-06T10:55:09.247Z,9.26
2018-03-06T10:56:09.228Z,9.36
2018-03-06T10:57:09.464Z,9.33
2018-03-06T10:58:09.450Z,9.32
2018-03-06T10:59:09.440Z,9.33
2018-03-06T11:00:09.436Z,9.21
2018-03-06T11:01:09.473Z,9.13
2018-03-06T11:02:09.229Z,9.15
2018-03-06T11:03:09.430Z,9.18
2018-03-06T11:04:09.411Z,9.21
2018-03-06T11:05:09.409Z,9.17
2018-03-06T11:06:09.394Z,9.23
2018-03-06T11:07:09.161Z,9.33
2018-03-06T11:08:09.406Z,9.35
2018-03-06T11:09:09.372Z,9.32
2018-03-06T11:10:09.392Z,9.48
2018-03-06T11:11:09.118Z,9.58
2018-03-06T11:12:09.358Z,9.6
2018-03-06T11:13:09.341Z,9.54
2018-03-06T11:14:09.085Z,9.48
2018-03-06T11:15:09.070Z,9.47
2018-03-06T11:16:09.319Z,9.5
2018-03-06T11:17:09.313Z,9.57
2018-03-06T11:18:09.310Z,9.46
2018-03-06T11:19:09.301Z,9.39
2018-03-06T11:20:09.051Z,9.38
2018-03-06T11:21:09.029Z,9.39
2018-03-06T11:22:09.277Z,9.42
2018-03-06T11:23:09.013Z,9.51
2018-03-06T11:24:09.265Z,9.51
2018-03-06T11:25:09.263Z,9.5
2018-03-06T11:26:08.738Z,9.54
2018-03-06T11:27:09.247Z,9.56
2018-03-06T11:28:09.232Z,9.47
2018-03-06T11:29:09.289Z,9.47
2018-03-06T11:30:09.475Z,9.61
2018-03-06T11:31:09.216Z,9.68
2018-03-06T11:32:09.212Z,9.65
2018-03-06T11:33:09.205Z,9.64
2018-03-06T11:34:09.191Z,9.6
2018-03-06T11:35:09.200Z,9.47
2018-03-06T11:36:09.178Z,9.53
2018-03-06T11:37:09.174Z,9.42
2018-03-06T11:38:09.174Z,9.46
2018-03-06T11:39:09.154Z,9.56
2018-03-06T11:40:09.146Z,9.71
2018-03-06T11:41:09.143Z,9.81
2018-03-06T11:42:09.141Z,9.81
2018-03-06T11:43:09.139Z,9.76
2018-03-06T11:44:08.860Z,9.65
2018-03-06T11:45:08.864Z,9.48
2018-03-06T11:46:09.109Z,9.43
2018-03-06T11:47:09.095Z,9.31
2018-03-06T11:48:09.294Z,9.26
2018-03-06T11:49:09.113Z,9.17
2018-03-06T11:50:09.109Z,9.18
2018-03-06T11:51:08.821Z,9.2
2018-03-06T11:52:09.063Z,9.35
2018-03-06T11:53:09.054Z,9.4
2018-03-06T11:54:09.077Z,9.54
2018-03-06T11:55:09.050Z,9.69
2018-03-06T11:56:08.779Z,9.78
2018-03-06T11:57:09.040Z,9.89
2018-03-06T11:58:09.026Z,10.01
2018-03-06T11:59:09.007Z,10.12
2018-03-06T12:00:08.744Z,10.15
2018-03-06T12:01:08.746Z,10.14
2018-03-06T12:02:09.073Z,10.12
2018-03-06T12:03:08.977Z,10.22
2018-03-06T12:04:08.973Z,10.27
2018-03-06T12:05:08.712Z,10.3
2018-03-06T12:06:08.704Z,10.38
2018-03-06T12:07:08.969Z,10.25
2018-03-06T12:08:08.957Z,10.22
2018-03-06T12:09:08.945Z,10.14
2018-03-06T12:10:08.741Z,10.05
2018-03-06T12:11:08.989Z,9.87
2018-03-06T12:12:08.920Z,9.81
2018-03-06T12:13:08.913Z,9.69
2018-03-06T12:14:08.903Z,9.68
2018-03-06T12:15:08.914Z,9.65
2018-03-06T12:16:08.962Z,9.68
2018-03-06T12:17:08.880Z,9.66
2018-03-06T12:18:08.872Z,9.76
2018-03-06T12:19:08.869Z,9.79
2018-03-06T12:20:08.609Z,9.79
2018-03-06T12:21:08.850Z,9.89
2018-03-06T12:22:08.591Z,9.94
2018-03-06T12:23:08.846Z,9.93
2018-03-06T12:24:08.575Z,9.96
2018-03-06T12:25:08.853Z,10.07
2018-03-06T12:26:08.821Z,10.15
2018-03-06T12:27:08.824Z,10.2
2018-03-06T12:28:08.831Z,10.17
2018-03-06T12:29:08.814Z,10.17
2018-03-06T12:30:08.878Z,10.23
2018-03-06T12:31:08.780Z,10.15
2018-03-06T12:32:08.802Z,10.18
2018-03-06T12:33:08.760Z,10.17
2018-03-06T12:34:08.773Z,10.09
2018-03-06T12:35:08.788Z,10.04
2018-03-06T12:36:08.233Z,10.02
2018-03-06T12:37:08.227Z,9.97
2018-03-06T12:38:08.736Z,9.94
2018-03-06T12:39:08.725Z,9.81
2018-03-06T12:40:08.720Z,9.86
2018-03-06T12:41:08.726Z,9.86
2018-03-06T12:42:08.700Z,9.81
2018-03-06T12:43:08.694Z,9.78
2018-03-06T12:44:08.689Z,9.68
2018-03-06T12:45:08.692Z,9.71
2018-03-06T12:46:08.692Z,9.71
2018-03-06T12:47:08.682Z,9.69
2018-03-06T12:48:08.734Z,9.68
2018-03-06T12:49:08.908Z,9.87
2018-03-06T12:50:08.658Z,9.94
2018-03-06T12:51:08.655Z,9.91
2018-03-06T12:52:08.390Z,9.99
2018-03-06T12:53:08.112Z,10.02
2018-03-06T12:54:08.632Z,9.9
2018-03-06T12:55:08.354Z,9.93
2018-03-06T12:56:08.608Z,9.86
2018-03-06T12:57:08.613Z,9.78
2018-03-06T12:58:08.592Z,9.89
2018-03-06T12:59:08.581Z,9.81
2018-03-06T13:00:08.591Z,9.86
2018-03-06T13:01:08.317Z,9.83
2018-03-06T13:02:08.559Z,9.83
2018-03-06T13:03:08.062Z,9.93
2018-03-06T13:04:08.315Z,9.87
2018-03-06T13:05:08.555Z,9.9
2018-03-06T13:06:08.273Z,9.81
2018-03-06T13:07:08.272Z,9.84
2018-03-06T13:08:08.263Z,9.87
2018-03-06T13:09:08.513Z,9.89
2018-03-06T13:10:08.244Z,9.81
2018-03-06T13:11:08.292Z,9.86
2018-03-06T13:12:08.233Z,9.66